Time;durP1;ratioP1;P1;durP2;ratioP2;P2;SDS_P1;SDS_P2;PMS_P1;PMS_P2;Temp;Humidity;BMP_temperature;BMP_pressure;BME280_temperature;BME280_humidity;BME280_pressure;Samples;Min_cycle;Max_cycle;Signal;HPM_P1;HPM_P2
2022/04/11 00:00:05;;;;;;;;;;;2.40;99.90;;;;;;5093747;28;19949;-57
2022/04/11 00:02:32;;;;;;;;;;;2.40;99.90;;;;;;5093548;28;19959;-57
2022/04/11 00:04:59;;;;;;;;;;;2.30;99.90;;;;;;5086578;28;20348;-57
2022/04/11 00:07:26;;;;;;;;;;;2.30;99.90;;;;;;5094945;28;19928;-60
2022/04/11 00:09:53;;;;;;;;;;;2.40;99.90;;;;;;5094137;28;19981;-57
2022/04/11 00:12:19;;;;;;;;;;;2.30;99.90;;;;;;5092960;28;19924;-57
2022/04/11 00:14:46;;;;;;;;;;;2.30;99.90;;;;;;5082384;28;19928;-57
2022/04/11 00:17:14;;;;;;;;;;;2.30;99.90;;;;;;5090587;28;19974;-57
2022/04/11 00:19:41;;;;;;;;;;;2.30;99.90;;;;;;5075432;28;20024;-57
2022/04/11 00:22:08;;;;;;;;;;;2.40;99.90;;;;;;5083209;28;19970;-57
2022/04/11 00:24:34;;;;;;;;;;;2.30;99.90;;;;;;5093528;28;19957;-58
2022/04/11 00:27:01;;;;;;;;;;;2.30;99.90;;;;;;5086070;28;20038;-58
2022/04/11 00:29:28;;;;;;;;;;;2.30;99.90;;;;;;5094595;28;19924;-57
2022/04/11 00:31:55;;;;;;;;;;;2.60;99.90;;;;;;5093853;28;19977;-58
2022/04/11 00:34:23;;;;;;;;;;;2.60;99.90;;;;;;5094207;28;19927;-57
2022/04/11 00:36:49;;;;;;;;;;;2.50;99.90;;;;;;5093063;28;19927;-57
2022/04/11 00:39:16;;;;;;;;;;;2.30;99.90;;;;;;5088958;28;19928;-57
2022/04/11 00:41:43;;;;;;;;;;;2.10;99.90;;;;;;5093128;28;20085;-57
2022/04/11 00:44:10;;;;;;;;;;;2.10;99.90;;;;;;5099853;28;20443;-57
2022/04/11 00:46:36;;;;;;;;;;;2.00;99.90;;;;;;5097181;28;19950;-57
2022/04/11 00:49:03;;;;;;;;;;;2.10;99.90;;;;;;5094304;28;20347;-57
2022/04/11 00:51:31;;;;;;;;;;;2.10;99.90;;;;;;5094303;28;20382;-57
2022/04/11 00:53:59;;;;;;;;;;;2.00;99.90;;;;;;5094583;28;19924;-57
2022/04/11 00:56:28;;;;;;;;;;;2.00;99.90;;;;;;5093693;28;19985;-57
2022/04/11 00:58:55;;;;;;;;;;;1.90;99.90;;;;;;5092476;28;20548;-57
2022/04/11 01:01:22;;;;;;;;;;;1.90;99.90;;;;;;5094705;28;19977;-57
2022/04/11 01:03:49;;;;;;;;;;;2.00;99.90;;;;;;5095000;28;19987;-58
2022/04/11 01:06:20;;;;;;;;;;;2.10;99.90;;;;;;5094501;28;19932;-57
2022/04/11 01:08:48;;;;;;;;;;;2.10;99.90;;;;;;5096760;28;20393;-57
2022/04/11 01:11:14;;;;;;;;;;;2.00;99.90;;;;;;5097422;28;19931;-57
2022/04/11 01:13:41;;;;;;;;;;;2.20;99.90;;;;;;5095404;28;19939;-57
2022/04/11 01:16:08;;;;;;;;;;;2.10;99.90;;;;;;5094588;28;20363;-57
2022/04/11 01:18:36;;;;;;;;;;;2.10;99.90;;;;;;5090744;28;20410;-57
2022/04/11 01:21:03;;;;;;;;;;;2.20;99.90;;;;;;5094191;28;19928;-57
2022/04/11 01:23:31;;;;;;;;;;;2.20;99.90;;;;;;5092816;28;19928;-57
2022/04/11 01:25:58;;;;;;;;;;;2.10;99.90;;;;;;5093681;28;19924;-56
2022/04/11 01:28:25;;;;;;;;;;;2.00;99.90;;;;;;5086362;28;19978;-56
2022/04/11 01:30:52;;;;;;;;;;;2.10;99.90;;;;;;5086702;28;19928;-56
2022/04/11 01:33:20;;;;;;;;;;;2.00;99.90;;;;;;5093186;28;20370;-55
2022/04/11 01:35:47;;;;;;;;;;;2.10;99.90;;;;;;5092062;28;19924;-56
2022/04/11 01:38:14;;;;;;;;;;;2.00;99.90;;;;;;5082465;28;20386;-56
2022/04/11 01:40:52;;;;;;;;;;;2.00;99.90;;;;;;5085609;28;19924;-57
2022/04/11 01:43:19;;;;;;;;;;;2.00;99.90;;;;;;5089298;28;19924;-57
2022/04/11 01:45:46;;;;;;;;;;;1.90;99.90;;;;;;5091758;28;19993;-56
2022/04/11 01:48:13;;;;;;;;;;;1.90;99.90;;;;;;5091860;28;20407;-57
2022/04/11 01:50:40;;;;;;;;;;;2.00;99.90;;;;;;5092374;28;19924;-56
2022/04/11 01:53:08;;;;;;;;;;;2.00;99.90;;;;;;5092729;28;19924;-56
2022/04/11 01:55:34;;;;;;;;;;;2.10;99.90;;;;;;5092623;28;19928;-56
2022/04/11 01:58:03;;;;;;;;;;;2.20;99.90;;;;;;5093597;28;19997;-57
2022/04/11 02:00:29;;;;;;;;;;;2.30;99.90;;;;;;5091362;28;19976;-57
2022/04/11 02:02:56;;;;;;;;;;;2.20;99.90;;;;;;5093289;28;19924;-57
2022/04/11 02:05:23;;;;;;;;;;;2.30;99.90;;;;;;5091676;28;19977;-58
2022/04/11 02:07:50;;;;;;;;;;;2.20;99.90;;;;;;5092115;28;20441;-58
2022/04/11 02:10:17;;;;;;;;;;;2.00;99.90;;;;;;5091798;28;19971;-57
2022/04/11 02:12:44;;;;;;;;;;;2.00;99.90;;;;;;5091268;28;19971;-57
2022/04/11 02:15:12;;;;;;;;;;;2.00;99.90;;;;;;5093179;28;19924;-57
2022/04/11 02:17:39;;;;;;;;;;;2.00;99.90;;;;;;5093039;28;19924;-57
2022/04/11 02:20:06;;;;;;;;;;;2.20;99.90;;;;;;5091570;28;19928;-57
2022/04/11 02:22:43;;;;;;;;;;;2.10;99.90;;;;;;5089060;28;19928;-57
2022/04/11 02:25:10;;;;;;;;;;;2.10;99.90;;;;;;5091364;28;19977;-57
2022/04/11 02:27:37;;;;;;;;;;;2.10;99.90;;;;;;5090665;28;19981;-57
2022/04/11 02:30:03;;;;;;;;;;;2.30;99.90;;;;;;5091903;28;19924;-57
2022/04/11 02:32:32;;;;;;;;;;;2.20;99.90;;;;;;5085900;28;19938;-57
2022/04/11 02:34:58;;;;;;;;;;;2.00;99.90;;;;;;5089869;28;19939;-57
2022/04/11 02:37:25;;;;;;;;;;;2.00;99.90;;;;;;5098048;28;19928;-57
2022/04/11 02:39:52;;;;;;;;;;;1.80;99.90;;;;;;5096851;28;19928;-57
2022/04/11 02:42:21;;;;;;;;;;;1.70;99.90;;;;;;5093522;28;19978;-57
2022/04/11 02:44:47;;;;;;;;;;;1.80;99.90;;;;;;5095967;28;19982;-57
2022/04/11 02:47:14;;;;;;;;;;;1.80;99.90;;;;;;5099020;28;19977;-57
2022/04/11 02:49:42;;;;;;;;;;;1.70;99.90;;;;;;5098712;28;19932;-57
2022/04/11 02:52:09;;;;;;;;;;;1.70;99.90;;;;;;5096462;28;20424;-57
2022/04/11 02:54:36;;;;;;;;;;;1.70;99.90;;;;;;5083766;28;19982;-57
2022/04/11 02:57:03;;;;;;;;;;;1.80;99.90;;;;;;5089560;28;19924;-57
2022/04/11 02:59:30;;;;;;;;;;;1.70;99.90;;;;;;5091706;28;19928;-57
2022/04/11 03:01:56;;;;;;;;;;;1.70;99.90;;;;;;5098062;28;20065;-57
2022/04/11 03:04:23;;;;;;;;;;;1.50;99.90;;;;;;5099825;28;19978;-57
2022/04/11 03:06:51;;;;;;;;;;;1.50;99.90;;;;;;5099642;28;19924;-56
2022/04/11 03:09:18;;;;;;;;;;;1.60;99.90;;;;;;5094038;28;19985;-57
2022/04/11 03:11:45;;;;;;;;;;;1.60;99.90;;;;;;5099699;28;19924;-57
2022/04/11 03:14:11;;;;;;;;;;;1.70;99.90;;;;;;5102485;28;19924;-59
2022/04/11 03:16:40;;;;;;;;;;;1.50;99.90;;;;;;5102305;28;19928;-56
2022/04/11 03:19:07;;;;;;;;;;;1.60;99.90;;;;;;5079460;28;19929;-56
2022/04/11 03:21:34;;;;;;;;;;;1.70;99.90;;;;;;5081262;28;19978;-56
2022/04/11 03:24:02;;;;;;;;;;;1.70;99.90;;;;;;5097912;28;19924;-56
2022/04/11 03:26:29;;;;;;;;;;;1.60;99.90;;;;;;5106029;28;19977;-56
2022/04/11 03:28:55;;;;;;;;;;;1.70;99.90;;;;;;5096935;28;19977;-57
2022/04/11 03:31:23;;;;;;;;;;;1.70;99.90;;;;;;5093340;28;19978;-57
2022/04/11 03:33:50;;;;;;;;;;;1.60;99.90;;;;;;5095999;28;19954;-57
2022/04/11 03:36:17;;;;;;;;;;;1.40;99.90;;;;;;5088795;28;19932;-57
2022/04/11 03:38:43;;;;;;;;;;;1.40;99.90;;;;;;5098457;28;19977;-57
2022/04/11 03:41:11;;;;;;;;;;;1.30;99.90;;;;;;5097295;28;19924;-58
2022/04/11 03:43:38;;;;;;;;;;;1.30;99.90;;;;;;5098316;28;19970;-57
2022/04/11 03:46:05;;;;;;;;;;;1.30;99.90;;;;;;5097233;28;19928;-57
2022/04/11 03:48:32;;;;;;;;;;;1.20;99.90;;;;;;5094069;28;20018;-57
2022/04/11 03:50:59;;;;;;;;;;;1.30;99.90;;;;;;5086787;28;20463;-57
2022/04/11 03:53:25;;;;;;;;;;;1.30;99.90;;;;;;5095339;28;19924;-57
2022/04/11 03:55:52;;;;;;;;;;;1.20;99.90;;;;;;5094812;28;19924;-57
2022/04/11 03:58:20;;;;;;;;;;;1.60;99.90;;;;;;5094927;28;19931;-57
2022/04/11 04:00:47;;;;;;;;;;;1.80;99.90;;;;;;5094224;28;20397;-57
2022/04/11 04:03:14;;;;;;;;;;;1.70;99.90;;;;;;5082414;28;19977;-57
2022/04/11 04:05:41;;;;;;;;;;;1.70;99.90;;;;;;5092822;28;19924;-57
2022/04/11 04:08:08;;;;;;;;;;;1.70;99.90;;;;;;5094713;28;19934;-57
2022/04/11 04:10:35;;;;;;;;;;;1.70;99.90;;;;;;5094221;28;19932;-57
2022/04/11 04:13:02;;;;;;;;;;;1.90;99.90;;;;;;5092568;28;19969;-57
2022/04/11 04:15:30;;;;;;;;;;;1.90;99.90;;;;;;5091528;28;19985;-57
2022/04/11 04:17:57;;;;;;;;;;;1.90;99.90;;;;;;5089332;28;19971;-57
2022/04/11 04:20:26;;;;;;;;;;;2.00;99.90;;;;;;5093240;28;20447;-57
2022/04/11 04:22:52;;;;;;;;;;;2.10;99.90;;;;;;5089526;28;20019;-57
2022/04/11 04:25:19;;;;;;;;;;;2.10;99.90;;;;;;5093264;28;19925;-57
2022/04/11 04:27:46;;;;;;;;;;;2.00;99.90;;;;;;5092311;28;19924;-57
2022/04/11 04:30:13;;;;;;;;;;;2.00;99.90;;;;;;5089096;28;20351;-57
2022/04/11 04:32:42;;;;;;;;;;;1.90;99.90;;;;;;5092188;28;19930;-57
2022/04/11 04:35:09;;;;;;;;;;;1.80;99.90;;;;;;5093839;28;19924;-56
2022/04/11 04:37:36;;;;;;;;;;;1.90;99.90;;;;;;5090785;28;19928;-56
2022/04/11 04:40:04;;;;;;;;;;;1.80;99.90;;;;;;5093356;28;19946;-56
2022/04/11 04:42:37;;;;;;;;;;;1.70;99.90;;;;;;5093370;28;20413;-56
2022/04/11 04:45:04;;;;;;;;;;;1.70;99.90;;;;;;5091111;28;19925;-56
2022/04/11 04:47:30;;;;;;;;;;;1.60;99.90;;;;;;5094187;28;19924;-57
2022/04/11 04:49:59;;;;;;;;;;;2.10;99.90;;;;;;5094056;28;19925;-57
2022/04/11 04:52:25;;;;;;;;;;;2.30;99.90;;;;;;5093772;28;19924;-57
2022/04/11 04:54:52;;;;;;;;;;;2.40;99.90;;;;;;5093589;28;19931;-56
2022/04/11 04:57:19;;;;;;;;;;;2.40;99.90;;;;;;5091981;28;19924;-57
2022/04/11 04:59:45;;;;;;;;;;;2.40;99.90;;;;;;5092098;28;19936;-57
2022/04/11 05:02:12;;;;;;;;;;;2.10;99.90;;;;;;5089268;28;19924;-57
2022/04/11 05:04:39;;;;;;;;;;;2.00;99.90;;;;;;5091548;28;20238;-57
2022/04/11 05:07:07;;;;;;;;;;;2.10;99.90;;;;;;5091317;28;19925;-57
2022/04/11 05:09:34;;;;;;;;;;;2.10;99.90;;;;;;5090288;28;19924;-57
2022/04/11 05:12:01;;;;;;;;;;;2.20;99.90;;;;;;5091743;28;19977;-56
2022/04/11 05:14:27;;;;;;;;;;;2.30;99.90;;;;;;5085310;28;20129;-57
2022/04/11 05:16:54;;;;;;;;;;;2.30;99.90;;;;;;5094425;28;19925;-57
2022/04/11 05:19:21;;;;;;;;;;;2.20;99.90;;;;;;5096163;28;19928;-57
2022/04/11 05:21:47;;;;;;;;;;;2.30;99.90;;;;;;5094653;28;20473;-57
2022/04/11 05:24:16;;;;;;;;;;;2.40;99.90;;;;;;5093335;28;19977;-57
2022/04/11 05:26:43;;;;;;;;;;;2.40;99.90;;;;;;5085850;28;20382;-58
2022/04/11 05:29:10;;;;;;;;;;;2.20;99.90;;;;;;5092551;28;19974;-57
2022/04/11 05:31:36;;;;;;;;;;;2.20;99.90;;;;;;5092704;28;20009;-57
2022/04/11 05:34:05;;;;;;;;;;;2.30;99.90;;;;;;5091574;28;19924;-57
2022/04/11 05:36:32;;;;;;;;;;;2.40;99.90;;;;;;5093242;28;19960;-58
2022/04/11 05:38:59;;;;;;;;;;;2.90;99.90;;;;;;5092293;28;19928;-58
2022/04/11 05:41:27;;;;;;;;;;;3.50;99.90;;;;;;5091681;28;19978;-59
2022/04/11 05:43:53;;;;;;;;;;;4.80;99.90;;;;;;5084515;28;19932;-58
2022/04/11 05:46:23;;;;;;;;;;;5.50;99.90;;;;;;5093922;28;19924;-57
2022/04/11 05:48:50;;;;;;;;;;;6.30;99.90;;;;;;5075636;28;19924;-57
2022/04/11 05:51:17;;;;;;;;;;;7.00;99.90;;;;;;5079942;28;19925;-57
2022/04/11 05:53:43;;;;;;;;;;;9.00;99.90;;;;;;5082903;28;19936;-58
2022/04/11 05:56:10;;;;;;;;;;;11.70;99.90;;;;;;5089512;28;19924;-57
2022/04/11 05:58:38;;;;;;;;;;;14.40;99.90;;;;;;5087199;28;20356;-58
2022/04/11 06:01:05;;;;;;;;;;;16.50;98.70;;;;;;5088792;28;20356;-58
2022/04/11 06:03:31;;;;;;;;;;;18.10;94.30;;;;;;5089254;28;20343;-58
2022/04/11 06:05:58;;;;;;;;;;;19.60;90.00;;;;;;5087180;28;20028;-59
2022/04/11 06:08:25;;;;;;;;;;;20.30;82.30;;;;;;5083420;28;20339;-58
2022/04/11 06:10:52;;;;;;;;;;;21.40;78.80;;;;;;5079974;28;19985;-60
2022/04/11 06:13:18;;;;;;;;;;;21.70;76.50;;;;;;5085751;28;19954;-59
2022/04/11 06:15:47;;;;;;;;;;;22.80;71.10;;;;;;5087982;28;19936;-58
2022/04/11 06:18:13;;;;;;;;;;;23.50;66.30;;;;;;5088266;28;19924;-58
2022/04/11 06:20:40;;;;;;;;;;;23.50;61.50;;;;;;5088055;28;19997;-58
2022/04/11 06:23:07;;;;;;;;;;;23.40;59.90;;;;;;5083220;28;19924;-58
2022/04/11 06:25:34;;;;;;;;;;;23.20;58.10;;;;;;5089215;28;19924;-58
2022/04/11 06:28:01;;;;;;;;;;;22.90;58.00;;;;;;5085720;28;19977;-59
2022/04/11 06:30:27;;;;;;;;;;;23.50;57.70;;;;;;5087997;28;20370;-59
2022/04/11 06:32:55;;;;;;;;;;;24.00;57.00;;;;;;5086230;28;20001;-59
2022/04/11 06:35:22;;;;;;;;;;;24.70;55.80;;;;;;5089542;28;19928;-58
2022/04/11 06:37:49;;;;;;;;;;;25.10;55.30;;;;;;5088583;28;19928;-60
2022/04/11 06:40:17;;;;;;;;;;;25.40;54.80;;;;;;5087849;28;19961;-59
2022/04/11 06:42:43;;;;;;;;;;;26.60;52.10;;;;;;5087632;28;19932;-61
2022/04/11 06:45:10;;;;;;;;;;;26.70;50.70;;;;;;5087002;28;20342;-60
2022/04/11 06:47:37;;;;;;;;;;;26.70;49.80;;;;;;5090172;28;19986;-60
2022/04/11 06:50:06;;;;;;;;;;;26.10;50.60;;;;;;5088650;28;19970;-61
2022/04/11 06:52:32;;;;;;;;;;;26.30;50.30;;;;;;5085547;28;19924;-60
2022/04/11 06:54:59;;;;;;;;;;;26.60;49.20;;;;;;5088552;28;19928;-60
2022/04/11 06:57:26;;;;;;;;;;;26.70;50.10;;;;;;5090373;28;19977;-60
2022/04/11 06:59:52;;;;;;;;;;;26.70;49.30;;;;;;5090495;28;19924;-61
2022/04/11 07:02:21;;;;;;;;;;;26.40;51.00;;;;;;5089447;28;19990;-61
2022/04/11 07:04:47;;;;;;;;;;;26.90;49.80;;;;;;5090669;28;20100;-61
2022/04/11 07:07:15;;;;;;;;;;;27.10;48.50;;;;;;5074022;28;20335;-62
2022/04/11 07:09:42;;;;;;;;;;;27.00;49.40;;;;;;5070631;28;19924;-61
2022/04/11 07:12:09;;;;;;;;;;;27.10;48.50;;;;;;5070506;28;19928;-61
2022/04/11 07:14:36;;;;;;;;;;;27.20;48.90;;;;;;5073230;28;19928;-61
2022/04/11 07:17:03;;;;;;;;;;;27.20;49.20;;;;;;5090838;28;20001;-61
2022/04/11 07:19:29;;;;;;;;;;;26.10;49.10;;;;;;5090750;28;19982;-60
2022/04/11 07:21:56;;;;;;;;;;;26.90;50.20;;;;;;5090319;28;19928;-61
2022/04/11 07:24:24;;;;;;;;;;;27.20;46.50;;;;;;5094663;28;19928;-61
2022/04/11 07:26:51;;;;;;;;;;;27.20;46.70;;;;;;5094494;28;19924;-61
2022/04/11 07:29:18;;;;;;;;;;;27.20;47.00;;;;;;5094112;28;19928;-62
2022/04/11 07:31:44;;;;;;;;;;;25.90;46.90;;;;;;5094075;28;20397;-62
2022/04/11 07:34:11;;;;;;;;;;;24.70;48.00;;;;;;5093854;28;19946;-61
2022/04/11 07:36:38;;;;;;;;;;;26.00;49.10;;;;;;5093683;28;19924;-62
2022/04/11 07:39:05;;;;;;;;;;;25.80;47.60;;;;;;5094407;28;19924;-60
2022/04/11 07:41:33;;;;;;;;;;;25.90;45.40;;;;;;5093212;28;20370;-61
2022/04/11 07:44:00;;;;;;;;;;;26.50;48.50;;;;;;5093704;28;19932;-61
2022/04/11 07:46:27;;;;;;;;;;;26.90;47.10;;;;;;5094105;28;19988;-60
2022/04/11 07:48:53;;;;;;;;;;;26.70;45.90;;;;;;5092613;28;19928;-61
2022/04/11 07:51:20;;;;;;;;;;;27.00;47.00;;;;;;5083070;28;19982;-61
2022/04/11 07:53:47;;;;;;;;;;;27.90;45.80;;;;;;5088769;28;19928;-61
2022/04/11 07:56:13;;;;;;;;;;;26.30;47.20;;;;;;5091843;28;20355;-61
2022/04/11 07:58:42;;;;;;;;;;;26.40;44.30;;;;;;5092341;28;19979;-62
2022/04/11 08:01:10;;;;;;;;;;;26.90;45.60;;;;;;5092144;28;19994;-61
2022/04/11 08:03:37;;;;;;;;;;;26.70;44.90;;;;;;5092186;28;20689;-61
2022/04/11 08:06:04;;;;;;;;;;;26.70;45.80;;;;;;5092519;28;19981;-61
2022/04/11 08:08:30;;;;;;;;;;;27.30;47.10;;;;;;5085781;28;19928;-62
2022/04/11 08:10:57;;;;;;;;;;;27.40;43.70;;;;;;5090048;28;20789;-60
2022/04/11 08:13:24;;;;;;;;;;;26.70;43.00;;;;;;5091182;28;19924;-61
2022/04/11 08:15:52;;;;;;;;;;;26.30;45.20;;;;;;5093121;28;19997;-61
2022/04/11 08:18:19;;;;;;;;;;;27.10;44.20;;;;;;5092890;28;20003;-61
2022/04/11 08:20:46;;;;;;;;;;;26.40;44.70;;;;;;5093848;28;19924;-61
2022/04/11 08:23:12;;;;;;;;;;;27.30;42.70;;;;;;5093249;28;19978;-61
2022/04/11 08:25:39;;;;;;;;;;;27.50;43.40;;;;;;5093362;28;19928;-61
2022/04/11 08:28:06;;;;;;;;;;;27.70;46.20;;;;;;5093230;28;20389;-61
2022/04/11 08:30:32;;;;;;;;;;;27.20;43.40;;;;;;5093407;28;19924;-61
2022/04/11 08:33:00;;;;;;;;;;;27.30;44.20;;;;;;5092392;28;19928;-62
2022/04/11 08:35:27;;;;;;;;;;;28.50;43.00;;;;;;5093210;28;19924;-61
2022/04/11 08:37:54;;;;;;;;;;;28.50;42.50;;;;;;5076619;28;20348;-61
2022/04/11 08:40:21;;;;;;;;;;;28.90;44.60;;;;;;5091504;28;20001;-61
2022/04/11 08:42:49;;;;;;;;;;;28.80;44.90;;;;;;5092427;28;20018;-61
2022/04/11 08:45:18;;;;;;;;;;;29.00;44.30;;;;;;5092270;28;19931;-60
2022/04/11 08:47:45;;;;;;;;;;;28.70;43.80;;;;;;5092928;28;19924;-61
2022/04/11 08:50:13;;;;;;;;;;;27.80;42.20;;;;;;5092349;28;19977;-61
2022/04/11 08:52:40;;;;;;;;;;;27.30;44.50;;;;;;5091716;28;19924;-61
2022/04/11 08:55:08;;;;;;;;;;;28.00;43.60;;;;;;5093001;28;19924;-61
2022/04/11 08:57:36;;;;;;;;;;;28.00;41.70;;;;;;5092833;28;20347;-61
2022/04/11 09:00:03;;;;;;;;;;;27.10;46.20;;;;;;5093123;28;19970;-61
2022/04/11 09:02:34;;;;;;;;;;;26.30;49.40;;;;;;5084986;28;20057;-61
2022/04/11 09:05:01;;;;;;;;;;;25.60;48.60;;;;;;5072484;28;19994;-61
2022/04/11 09:07:44;;;;;;;;;;;26.20;48.90;;;;;;5085103;28;20010;-60
2022/04/11 09:10:11;;;;;;;;;;;26.40;48.60;;;;;;5082480;28;19925;-61
2022/04/11 09:12:45;;;;;;;;;;;26.70;48.40;;;;;;5084247;28;19924;-60
2022/04/11 09:15:12;;;;;;;;;;;27.40;47.50;;;;;;5092242;28;19932;-61
2022/04/11 09:17:40;;;;;;;;;;;26.10;48.70;;;;;;5092011;28;19970;-60
2022/04/11 09:20:10;;;;;;;;;;;25.30;50.30;;;;;;5089318;28;19924;-60
2022/04/11 09:22:38;;;;;;;;;;;23.10;52.70;;;;;;5091265;28;20009;-61
2022/04/11 09:25:05;;;;;;;;;;;22.40;51.40;;;;;;5091960;28;19924;-61
2022/04/11 09:27:32;;;;;;;;;;;22.80;53.00;;;;;;5092292;28;20348;-61
2022/04/11 09:29:59;;;;;;;;;;;24.90;51.80;;;;;;5091741;28;19924;-61
2022/04/11 09:32:25;;;;;;;;;;;26.50;46.70;;;;;;5091752;28;20382;-61
2022/04/11 09:34:52;;;;;;;;;;;27.20;47.00;;;;;;5091466;28;19924;-61
2022/04/11 09:37:20;;;;;;;;;;;27.80;49.70;;;;;;5091640;28;20227;-61
2022/04/11 09:39:55;;;;;;;;;;;26.40;48.50;;;;;;5091366;28;20070;-61
2022/04/11 09:42:29;;;;;;;;;;;27.00;46.80;;;;;;5091295;28;20014;-60
2022/04/11 09:44:58;;;;;;;;;;;26.30;48.80;;;;;;5090953;28;19928;-61
2022/04/11 09:47:25;;;;;;;;;;;25.60;48.20;;;;;;5092004;28;19924;-60
2022/04/11 09:49:52;;;;;;;;;;;25.20;49.80;;;;;;5090769;28;19924;-59
2022/04/11 09:52:19;;;;;;;;;;;23.10;50.60;;;;;;5090985;28;20439;-60
2022/04/11 09:54:47;;;;;;;;;;;24.40;50.20;;;;;;5092033;28;20376;-61
2022/04/11 09:57:16;;;;;;;;;;;24.90;49.40;;;;;;5093460;28;19924;-60
2022/04/11 09:59:43;;;;;;;;;;;24.80;51.50;;;;;;5091292;28;19939;-60
2022/04/11 10:02:11;;;;;;;;;;;25.00;52.30;;;;;;5090960;28;20015;-61
2022/04/11 10:04:38;;;;;;;;;;;23.90;51.80;;;;;;5090952;28;19966;-60
2022/04/11 10:07:06;;;;;;;;;;;23.40;53.20;;;;;;5090386;28;20443;-61
2022/04/11 10:09:33;;;;;;;;;;;24.60;51.30;;;;;;5091177;28;19924;-60
2022/04/11 10:12:04;;;;;;;;;;;24.20;52.20;;;;;;5091661;28;20032;-60
2022/04/11 10:14:32;;;;;;;;;;;23.70;53.10;;;;;;5090713;28;19925;-61
2022/04/11 10:17:01;;;;;;;;;;;24.60;51.90;;;;;;5089090;28;19978;-60
2022/04/11 10:19:29;;;;;;;;;;;25.50;49.90;;;;;;5090210;28;19924;-61
2022/04/11 10:21:57;;;;;;;;;;;25.30;53.10;;;;;;5086565;28;19977;-60
2022/04/11 10:24:32;;;;;;;;;;;25.10;52.40;;;;;;5089907;28;19924;-60
2022/04/11 10:27:14;;;;;;;;;;;22.90;55.10;;;;;;5090809;28;20010;-61
2022/04/11 10:29:42;;;;;;;;;;;22.90;53.70;;;;;;5090969;28;19936;-60
2022/04/11 10:32:09;;;;;;;;;;;22.80;57.30;;;;;;5091238;28;19924;-60
2022/04/11 10:34:51;;;;;;;;;;;24.20;54.10;;;;;;5091323;28;19928;-60
2022/04/11 10:37:18;;;;;;;;;;;22.50;53.80;;;;;;5086295;28;19928;-60
2022/04/11 10:39:45;;;;;;;;;;;22.50;55.20;;;;;;5089617;28;20573;-59
2022/04/11 10:42:13;;;;;;;;;;;21.50;56.30;;;;;;5089401;28;19932;-60
2022/04/11 10:44:40;;;;;;;;;;;21.60;55.30;;;;;;5089830;28;19924;-60
2022/04/11 10:47:34;;;;;;;;;;;21.00;56.40;;;;;;5089945;28;19928;-60
2022/04/11 10:50:19;;;;;;;;;;;21.30;56.60;;;;;;5035576;28;19932;-57
2022/04/11 10:52:51;;;;;;;;;;;22.30;51.40;;;;;;5088759;28;19931;-59
2022/04/11 10:55:19;;;;;;;;;;;21.60;54.60;;;;;;5089844;28;19954;-60
2022/04/11 10:57:46;;;;;;;;;;;20.30;57.20;;;;;;5095047;28;20360;-60
2022/04/11 11:00:14;;;;;;;;;;;19.50;59.60;;;;;;5094786;28;20319;-57
2022/04/11 11:03:00;;;;;;;;;;;18.70;60.00;;;;;;5093833;28;19985;-58
2022/04/11 11:05:27;;;;;;;;;;;18.40;62.60;;;;;;5089551;28;19931;-58
2022/04/11 11:08:09;;;;;;;;;;;17.40;66.80;;;;;;5090442;28;19924;-60
2022/04/11 11:10:41;;;;;;;;;;;16.90;63.30;;;;;;5093188;28;20332;-61
2022/04/11 11:13:27;;;;;;;;;;;16.70;64.20;;;;;;5094230;28;20023;-60
2022/04/11 11:15:54;;;;;;;;;;;16.60;66.20;;;;;;5094468;28;19967;-60
2022/04/11 11:18:20;;;;;;;;;;;16.60;63.50;;;;;;5094448;28;20010;-59
2022/04/11 11:20:51;;;;;;;;;;;16.10;66.80;;;;;;5094375;28;20354;-59
2022/04/11 11:23:21;;;;;;;;;;;15.70;67.50;;;;;;5093949;28;20018;-59
2022/04/11 11:25:50;;;;;;;;;;;15.50;68.00;;;;;;5093685;28;19928;-60
2022/04/11 11:28:17;;;;;;;;;;;15.50;65.90;;;;;;5093955;28;20007;-60
2022/04/11 11:30:44;;;;;;;;;;;15.50;66.00;;;;;;5094243;28;19924;-59
2022/04/11 11:33:14;;;;;;;;;;;15.70;69.60;;;;;;5093983;28;20382;-60
2022/04/11 11:35:48;;;;;;;;;;;15.90;67.30;;;;;;5094070;28;19924;-59
2022/04/11 11:38:14;;;;;;;;;;;15.70;66.40;;;;;;5094070;28;20016;-60
2022/04/11 11:40:53;;;;;;;;;;;15.60;69.80;;;;;;5093815;28;20425;-60
2022/04/11 11:43:20;;;;;;;;;;;15.70;65.00;;;;;;5093638;28;20048;-61
2022/04/11 11:45:47;;;;;;;;;;;15.70;65.80;;;;;;5093623;28;19924;-61
2022/04/11 11:48:24;;;;;;;;;;;15.60;67.50;;;;;;5093287;28;19925;-61
2022/04/11 11:50:52;;;;;;;;;;;16.00;72.10;;;;;;5090946;28;19924;-61
2022/04/11 11:53:19;;;;;;;;;;;16.40;64.60;;;;;;5092268;28;20413;-61
2022/04/11 11:55:57;;;;;;;;;;;16.50;63.10;;;;;;5092352;28;19924;-60
2022/04/11 11:58:34;;;;;;;;;;;16.80;61.50;;;;;;5090583;28;20378;-60
2022/04/11 12:01:00;;;;;;;;;;;16.90;64.30;;;;;;5092467;28;20042;-60
2022/04/11 12:06:11;;;;;;;;;;;16.80;59.90;;;;;;5089749;28;20301;-60
2022/04/11 12:08:38;;;;;;;;;;;16.30;60.00;;;;;;5084526;28;20382;-60
2022/04/11 12:11:07;;;;;;;;;;;16.20;65.10;;;;;;5091990;28;19973;-58
2022/04/11 12:13:35;;;;;;;;;;;15.60;65.70;;;;;;5092732;28;19992;-58
2022/04/11 12:16:09;;;;;;;;;;;15.80;67.10;;;;;;5092428;28;20065;-58
2022/04/11 12:18:48;;;;;;;;;;;15.90;64.60;;;;;;5092307;28;19924;-60
2022/04/11 12:21:15;;;;;;;;;;;15.50;64.70;;;;;;5091773;28;20469;-59
2022/04/11 12:23:46;;;;;;;;;;;15.80;63.70;;;;;;5092151;28;19928;-59
2022/04/11 12:26:24;;;;;;;;;;;16.00;59.40;;;;;;5087668;28;20027;-58
2022/04/11 12:28:50;;;;;;;;;;;16.30;62.60;;;;;;5092226;28;19924;-59
2022/04/11 12:31:18;;;;;;;;;;;16.40;62.40;;;;;;5092917;28;20403;-62
2022/04/11 12:33:46;;;;;;;;;;;16.10;61.30;;;;;;5093298;28;19943;-60
2022/04/11 12:36:14;;;;;;;;;;;16.00;59.00;;;;;;5093028;28;19950;-60
2022/04/11 12:38:45;;;;;;;;;;;16.20;63.40;;;;;;5091231;28;19925;-60
2022/04/11 12:41:30;;;;;;;;;;;16.30;59.20;;;;;;5091920;28;19977;-60
2022/04/11 12:44:10;;;;;;;;;;;16.30;61.90;;;;;;5092245;28;19978;-59
2022/04/11 12:46:38;;;;;;;;;;;16.50;60.20;;;;;;5092645;28;19931;-58
2022/04/11 12:49:05;;;;;;;;;;;16.40;62.60;;;;;;5092255;28;19924;-59
2022/04/11 12:51:32;;;;;;;;;;;16.40;58.10;;;;;;5092203;28;20347;-59
2022/04/11 12:54:05;;;;;;;;;;;16.70;58.50;;;;;;5092552;28;19924;-59
2022/04/11 12:56:37;;;;;;;;;;;16.90;62.60;;;;;;5091840;28;19932;-58
2022/04/11 12:59:04;;;;;;;;;;;16.80;60.00;;;;;;5087997;28;19924;-60
2022/04/11 13:01:58;;;;;;;;;;;16.40;59.00;;;;;;5091684;28;19928;-60
2022/04/11 13:04:25;;;;;;;;;;;16.10;61.40;;;;;;5044209;28;19924;-61
2022/04/11 13:06:52;;;;;;;;;;;16.30;62.70;;;;;;5092021;28;19934;-60
2022/04/11 13:09:19;;;;;;;;;;;16.40;60.50;;;;;;5092002;28;19925;-61
2022/04/11 13:11:48;;;;;;;;;;;16.30;59.60;;;;;;5092019;28;19978;-59
2022/04/11 13:14:15;;;;;;;;;;;16.60;64.30;;;;;;5090199;28;20015;-60
2022/04/11 13:19:26;;;;;;;;;;;17.00;61.30;;;;;;5072124;28;19943;-59
2022/04/11 13:21:53;;;;;;;;;;;17.20;57.50;;;;;;5071573;28;19969;-59
2022/04/11 13:24:20;;;;;;;;;;;17.20;59.30;;;;;;5071896;28;19928;-60
2022/04/11 13:26:49;;;;;;;;;;;17.30;55.70;;;;;;5071876;28;20569;-61
2022/04/11 13:29:16;;;;;;;;;;;17.30;57.50;;;;;;5077931;28;19928;-61
2022/04/11 13:31:43;;;;;;;;;;;17.20;53.90;;;;;;5091465;28;19928;-59
2022/04/11 13:34:09;;;;;;;;;;;17.40;56.40;;;;;;5091249;28;20718;-61
2022/04/11 13:36:36;;;;;;;;;;;16.90;57.10;;;;;;5086412;28;19985;-59
2022/04/11 13:39:03;;;;;;;;;;;16.90;57.20;;;;;;5091867;28;19988;-59
2022/04/11 13:41:30;;;;;;;;;;;16.70;57.50;;;;;;5092085;28;19928;-60
2022/04/11 13:43:58;;;;;;;;;;;17.20;57.20;;;;;;5092207;28;19993;-59
2022/04/11 13:46:25;;;;;;;;;;;17.60;55.20;;;;;;5091769;28;20057;-59
2022/04/11 13:48:54;;;;;;;;;;;17.50;55.70;;;;;;5091706;28;20463;-60
2022/04/11 13:51:21;;;;;;;;;;;17.30;57.70;;;;;;5091353;28;20371;-60
2022/04/11 13:53:47;;;;;;;;;;;17.50;55.40;;;;;;5091955;28;20359;-60
2022/04/11 13:56:14;;;;;;;;;;;17.50;51.60;;;;;;5091923;28;19986;-60
2022/04/11 13:58:41;;;;;;;;;;;17.50;50.80;;;;;;5091536;28;19924;-60
2022/04/11 14:01:09;;;;;;;;;;;17.70;53.40;;;;;;5090897;28;19944;-60
2022/04/11 14:03:36;;;;;;;;;;;17.90;52.90;;;;;;5090559;28;19982;-61
2022/04/11 14:06:03;;;;;;;;;;;18.00;53.90;;;;;;5090145;28;19924;-60
2022/04/11 14:08:29;;;;;;;;;;;17.90;54.20;;;;;;5087546;28;20359;-60
2022/04/11 14:10:56;;;;;;;;;;;17.80;55.40;;;;;;5089780;28;19932;-60
2022/04/11 14:13:23;;;;;;;;;;;17.90;55.30;;;;;;5089729;28;19931;-60
2022/04/11 14:15:50;;;;;;;;;;;17.80;55.00;;;;;;5090064;28;20029;-60
2022/04/11 14:18:18;;;;;;;;;;;17.80;58.60;;;;;;5089584;28;19970;-59
2022/04/11 14:20:45;;;;;;;;;;;17.70;57.00;;;;;;5089909;28;20350;-60
2022/04/11 14:23:11;;;;;;;;;;;17.90;57.10;;;;;;5088226;28;19924;-60
2022/04/11 14:25:38;;;;;;;;;;;17.80;59.30;;;;;;5090115;28;19936;-59
2022/04/11 14:28:24;;;;;;;;;;;17.80;55.90;;;;;;5089879;28;19985;-60
2022/04/11 14:30:51;;;;;;;;;;;17.60;56.20;;;;;;5085685;28;19932;-59